Time;durP1;ratioP1;P1;durP2;ratioP2;P2;SDS_P1;SDS_P2;PMS_P1;PMS_P2;Temp;Humidity;BMP_temperature;BMP_pressure;BME280_temperature;BME280_humidity;BME280_pressure;Samples;Min_cycle;Max_cycle;Signal;HPM_P1;HPM_P2
2021/09/30 00:00:33;;;;;;;1.40;1.40;;;7.10;99.90;;;;;;477703;248;28155;-76
2021/09/30 00:02:34;;;;;;;2.00;1.70;;;7.10;99.90;;;;;;477813;248;27549;-76
2021/09/30 00:04:36;;;;;;;1.60;1.50;;;7.10;99.90;;;;;;477773;248;28860;-76
2021/09/30 00:06:37;;;;;;;1.40;1.40;;;7.10;99.90;;;;;;477819;249;27558;-76
2021/09/30 00:08:38;;;;;;;1.20;1.20;;;7.10;99.90;;;;;;477717;248;27402;-76
2021/09/30 00:10:45;;;;;;;1.87;1.40;;;7.00;99.90;;;;;;477770;248;27941;-77
2021/09/30 00:12:45;;;;;;;1.30;1.30;;;7.00;99.90;;;;;;477697;248;27418;-75
2021/09/30 00:14:47;;;;;;;1.83;1.30;;;7.00;99.90;;;;;;477790;248;27414;-76
2021/09/30 00:16:59;;;;;;;1.48;1.37;;;7.00;99.90;;;;;;477906;248;28797;-76
2021/09/30 00:32:37;;;;;;;1.40;1.30;;;7.00;99.90;;;;;;477694;248;29280;-75
2021/09/30 00:32:51;;;;;;;1.62;1.50;;;6.90;99.90;;;;;;477683;248;27967;-74
2021/09/30 00:34:56;;;;;;;2.42;1.52;;;6.80;99.90;;;;;;477668;248;27469;-76
2021/09/30 00:46:22;;;;;;;1.40;1.40;;;6.70;99.90;;;;;;477712;249;28761;-75
2021/09/30 00:48:38;;;;;;;2.85;1.50;;;6.70;99.90;;;;;;477700;248;27402;-75
2021/09/30 00:50:32;;;;;;;1.60;1.50;;;6.70;99.90;;;;;;477722;248;27461;-76
2021/09/30 00:52:35;;;;;;;1.60;1.50;;;6.70;99.90;;;;;;477660;248;27410;-75
2021/09/30 00:54:47;;;;;;;1.67;1.58;;;6.60;99.90;;;;;;477736;248;27465;-76
2021/09/30 02:19:17;;;;;;;1.37;1.27;;;6.10;99.90;;;;;;477703;249;28037;-75
2021/09/30 02:23:43;;;;;;;1.85;1.75;;;6.00;99.90;;;;;;477677;248;27546;-75
2021/09/30 02:34:49;;;;;;;2.35;1.67;;;6.00;99.90;;;;;;477680;249;27923;-75
2021/09/30 02:59:38;;;;;;;2.42;2.10;;;5.90;99.90;;;;;;477631;248;27453;-75
2021/09/30 03:01:39;;;;;;;1.87;1.77;;;6.00;99.90;;;;;;477654;248;27430;-75
2021/09/30 03:03:40;;;;;;;1.90;1.80;;;6.10;99.90;;;;;;477594;249;27936;-75
2021/09/30 03:05:41;;;;;;;2.03;1.90;;;6.10;99.90;;;;;;477662;249;27927;-76
2021/09/30 03:07:43;;;;;;;4.05;1.75;;;6.10;99.90;;;;;;477658;248;27548;-76
2021/09/30 03:09:45;;;;;;;2.10;2.00;;;6.20;99.90;;;;;;477681;248;27450;-76
2021/09/30 03:11:49;;;;;;;1.95;1.85;;;6.30;99.90;;;;;;477666;249;27493;-76
2021/09/30 03:13:48;;;;;;;1.87;1.77;;;6.40;99.90;;;;;;477689;248;27633;-76
2021/09/30 03:15:54;;;;;;;4.40;2.10;;;6.50;99.90;;;;;;477672;249;27478;-76
2021/09/30 03:17:51;;;;;;;2.83;2.20;;;6.50;99.90;;;;;;477703;247;27446;-75
2021/09/30 03:19:57;;;;;;;2.37;2.17;;;6.60;99.90;;;;;;477669;249;27996;-75
2021/09/30 03:22:13;;;;;;;2.50;2.30;;;6.60;99.90;;;;;;477671;249;27988;-75
2021/09/30 03:24:01;;;;;;;2.50;2.30;;;6.60;99.90;;;;;;477700;249;27940;-75
2021/09/30 03:26:03;;;;;;;2.70;2.50;;;6.60;99.90;;;;;;477686;248;28073;-74
2021/09/30 03:28:04;;;;;;;2.30;2.10;;;6.70;99.90;;;;;;477701;248;27435;-74
2021/09/30 03:30:05;;;;;;;2.30;2.20;;;6.70;99.90;;;;;;477667;249;27498;-75
2021/09/30 03:32:07;;;;;;;2.35;2.22;;;6.70;99.90;;;;;;477711;248;28166;-75
2021/09/30 03:34:08;;;;;;;2.53;2.33;;;6.70;99.90;;;;;;477689;248;27417;-75
2021/09/30 03:36:09;;;;;;;2.53;2.43;;;6.80;99.90;;;;;;477715;249;27534;-74
2021/09/30 03:38:10;;;;;;;3.37;2.53;;;6.80;99.90;;;;;;477724;248;28053;-74
2021/09/30 03:40:12;;;;;;;2.35;2.25;;;6.80;99.90;;;;;;477733;248;27885;-74
2021/09/30 03:42:13;;;;;;;2.42;2.20;;;6.80;99.90;;;;;;477728;248;28055;-76
2021/09/30 03:44:14;;;;;;;3.55;2.60;;;6.80;99.90;;;;;;477752;248;27414;-75
2021/09/30 03:46:15;;;;;;;3.22;2.95;;;6.80;99.90;;;;;;477688;248;27502;-75
2021/09/30 03:48:17;;;;;;;4.03;2.90;;;6.80;99.90;;;;;;477751;248;27453;-75
2021/09/30 03:50:22;;;;;;;2.58;2.40;;;6.80;99.90;;;;;;477683;248;28025;-75
2021/09/30 03:52:59;;;;;;;3.92;2.55;;;6.80;99.90;;;;;;477695;248;27487;-74
2021/09/30 03:54:39;;;;;;;3.53;2.90;;;6.80;99.90;;;;;;476294;249;27406;-75
2021/09/30 03:56:48;;;;;;;2.80;2.60;;;6.80;99.90;;;;;;477687;248;27882;-75
2021/09/30 04:00:54;;;;;;;2.90;2.70;;;6.90;99.90;;;;;;477668;248;27435;-75
2021/09/30 04:02:56;;;;;;;3.05;2.72;;;6.90;99.90;;;;;;477752;248;28587;-76
2021/09/30 04:04:57;;;;;;;3.20;3.00;;;6.90;99.90;;;;;;477763;248;27454;-76
2021/09/30 04:06:58;;;;;;;3.37;3.08;;;6.90;99.90;;;;;;477757;248;27406;-76
2021/09/30 04:08:59;;;;;;;3.17;2.87;;;6.90;99.90;;;;;;477754;248;27922;-75
2021/09/30 04:11:01;;;;;;;3.25;3.05;;;7.00;99.90;;;;;;477665;248;27977;-75
2021/09/30 04:13:02;;;;;;;3.50;3.20;;;7.00;99.90;;;;;;477702;248;27442;-75
2021/09/30 04:15:03;;;;;;;3.60;3.25;;;7.00;99.90;;;;;;477768;248;27462;-75
2021/09/30 04:17:04;;;;;;;4.43;3.70;;;6.90;99.90;;;;;;477752;248;27473;-76
2021/09/30 04:19:06;;;;;;;4.07;3.78;;;7.00;99.90;;;;;;477678;248;27525;-76
2021/09/30 04:21:07;;;;;;;3.43;3.13;;;7.00;99.90;;;;;;477752;248;28057;-76
2021/09/30 04:23:08;;;;;;;3.50;3.20;;;7.00;99.90;;;;;;477767;248;28363;-75
2021/09/30 04:25:10;;;;;;;3.67;3.08;;;6.90;99.90;;;;;;477720;248;29301;-74
2021/09/30 04:27:11;;;;;;;3.47;3.20;;;6.90;99.90;;;;;;477716;248;27478;-75
2021/09/30 04:29:12;;;;;;;3.55;3.25;;;6.90;99.90;;;;;;477702;248;27478;-74
2021/09/30 04:31:13;;;;;;;3.20;2.90;;;6.90;99.90;;;;;;477749;248;27458;-75
2021/09/30 04:33:15;;;;;;;3.47;3.17;;;6.90;99.90;;;;;;477743;249;28849;-74
2021/09/30 04:35:16;;;;;;;3.53;3.23;;;6.90;99.90;;;;;;477829;248;27461;-75
2021/09/30 04:37:17;;;;;;;3.90;3.45;;;6.90;99.90;;;;;;477818;248;28008;-75
2021/09/30 04:39:18;;;;;;;3.47;3.17;;;6.80;99.90;;;;;;477752;248;28063;-75
2021/09/30 04:41:20;;;;;;;3.42;3.08;;;6.80;99.90;;;;;;477756;248;27922;-75
2021/09/30 04:43:21;;;;;;;3.60;3.30;;;6.80;99.90;;;;;;477769;248;27419;-74
2021/09/30 04:45:22;;;;;;;4.55;3.28;;;6.80;99.90;;;;;;477724;248;27454;-75
2021/09/30 04:47:23;;;;;;;3.40;3.20;;;6.80;99.90;;;;;;477718;248;27457;-75
2021/09/30 04:49:25;;;;;;;3.65;3.40;;;6.70;99.90;;;;;;477770;248;27481;-74
2021/09/30 04:51:26;;;;;;;3.95;3.25;;;6.60;99.90;;;;;;477755;248;27544;-75
2021/09/30 04:53:27;;;;;;;3.92;3.53;;;6.70;99.90;;;;;;477700;248;28065;-74
2021/09/30 04:55:28;;;;;;;3.40;3.20;;;6.60;99.90;;;;;;477697;248;27928;-75
2021/09/30 04:57:32;;;;;;;4.12;3.72;;;6.60;99.90;;;;;;477712;248;27533;-75
2021/09/30 04:59:31;;;;;;;3.72;3.42;;;6.50;99.90;;;;;;477707;248;27396;-75
2021/09/30 05:01:33;;;;;;;3.65;3.35;;;6.50;99.90;;;;;;477684;248;27445;-75
2021/09/30 05:03:33;;;;;;;3.70;3.40;;;6.40;99.90;;;;;;477656;248;27412;-75
2021/09/30 05:05:35;;;;;;;3.65;3.35;;;6.40;99.90;;;;;;477671;248;27407;-74
2021/09/30 05:07:36;;;;;;;3.70;3.37;;;6.40;99.90;;;;;;477711;248;27917;-75
2021/09/30 05:09:38;;;;;;;3.12;2.92;;;6.40;99.90;;;;;;477701;248;27910;-74
2021/09/30 05:11:47;;;;;;;4.15;3.15;;;6.40;99.90;;;;;;477666;248;27528;-75
2021/09/30 05:13:42;;;;;;;3.20;2.90;;;6.40;99.90;;;;;;477562;248;27398;-75
2021/09/30 05:15:41;;;;;;;3.53;3.12;;;6.40;99.90;;;;;;477675;248;27423;-74
2021/09/30 05:17:42;;;;;;;3.30;3.10;;;6.30;99.90;;;;;;477694;248;27609;-76
2021/09/30 05:19:43;;;;;;;3.25;3.05;;;6.30;99.90;;;;;;477709;248;27483;-75
2021/09/30 05:21:45;;;;;;;3.00;2.80;;;6.30;99.90;;;;;;477728;248;27445;-75
2021/09/30 05:23:47;;;;;;;2.70;2.60;;;6.30;99.90;;;;;;477700;248;27990;-75
2021/09/30 05:25:47;;;;;;;3.97;2.72;;;6.30;99.90;;;;;;477687;247;27969;-75
2021/09/30 05:27:51;;;;;;;3.55;3.35;;;6.30;99.90;;;;;;477692;248;27525;-75
2021/09/30 05:29:50;;;;;;;4.53;3.25;;;6.30;99.90;;;;;;477661;248;27392;-75
2021/09/30 05:31:51;;;;;;;2.95;2.75;;;6.30;99.90;;;;;;477639;248;27451;-75
2021/09/30 05:33:52;;;;;;;3.20;2.90;;;6.20;99.90;;;;;;477738;248;27896;-74
2021/09/30 05:35:54;;;;;;;3.65;3.35;;;6.20;99.90;;;;;;477731;248;27495;-74
2021/09/30 05:37:55;;;;;;;3.00;2.80;;;6.20;99.90;;;;;;477685;248;27923;-75
2021/09/30 05:39:56;;;;;;;2.62;2.42;;;6.30;99.90;;;;;;477674;248;27953;-75
2021/09/30 05:41:58;;;;;;;2.70;2.50;;;6.30;99.90;;;;;;477702;248;27517;-75
2021/09/30 05:44:07;;;;;;;2.70;2.50;;;6.30;99.90;;;;;;477722;248;27584;-74
2021/09/30 05:46:00;;;;;;;3.22;2.97;;;6.30;99.90;;;;;;477680;248;27396;-74
2021/09/30 05:48:01;;;;;;;2.80;2.60;;;6.30;99.90;;;;;;477660;248;27449;-75
2021/09/30 05:50:02;;;;;;;2.90;2.70;;;6.40;99.90;;;;;;477675;248;27439;-75
2021/09/30 05:52:04;;;;;;;3.15;2.85;;;6.40;99.90;;;;;;477693;248;27439;-75
2021/09/30 05:54:05;;;;;;;3.45;3.12;;;6.50;99.90;;;;;;477707;248;27937;-76
2021/09/30 05:56:06;;;;;;;3.42;2.90;;;6.50;99.90;;;;;;477712;248;27475;-75
2021/09/30 05:58:07;;;;;;;3.60;2.78;;;6.50;99.90;;;;;;477712;248;27549;-75
2021/09/30 06:00:16;;;;;;;3.37;3.08;;;6.60;99.90;;;;;;477668;248;27511;-74
2021/09/30 06:11:02;;;;;;;3.05;2.85;;;6.80;99.90;;;;;;477697;248;27451;-74
2021/09/30 06:13:06;;;;;;;3.83;3.35;;;6.90;99.90;;;;;;477675;248;27454;-75
2021/09/30 06:15:05;;;;;;;3.40;3.10;;;6.80;99.90;;;;;;477653;248;27447;-75
2021/09/30 06:17:04;;;;;;;3.35;3.05;;;6.90;99.90;;;;;;477664;248;27533;-75
2021/09/30 06:19:05;;;;;;;3.75;3.45;;;6.90;99.90;;;;;;477700;248;27954;-75
2021/09/30 06:21:06;;;;;;;4.05;3.75;;;6.90;99.90;;;;;;477682;248;27997;-75
2021/09/30 06:23:08;;;;;;;3.15;2.90;;;7.00;99.90;;;;;;477694;248;27439;-75
2021/09/30 06:25:09;;;;;;;3.33;2.97;;;7.00;99.90;;;;;;477700;248;27398;-74
2021/09/30 06:27:10;;;;;;;3.27;2.97;;;7.00;99.90;;;;;;477701;248;27447;-75
2021/09/30 06:29:11;;;;;;;3.65;3.35;;;7.00;99.90;;;;;;477711;249;28785;-75
2021/09/30 06:31:13;;;;;;;3.47;3.20;;;7.00;99.90;;;;;;477703;248;27453;-75
2021/09/30 06:33:14;;;;;;;4.00;3.67;;;7.10;99.90;;;;;;477690;248;28017;-75
2021/09/30 06:35:15;;;;;;;9.38;5.00;;;7.10;99.90;;;;;;477691;248;28721;-75
2021/09/30 06:37:16;;;;;;;6.00;4.10;;;7.20;99.90;;;;;;477702;248;27402;-76
2021/09/30 06:39:18;;;;;;;4.97;4.47;;;7.10;99.90;;;;;;477721;248;27511;-76
2021/09/30 06:41:19;;;;;;;7.20;3.67;;;7.20;99.90;;;;;;477679;248;27651;-75
2021/09/30 06:43:20;;;;;;;4.60;4.17;;;7.30;99.90;;;;;;477700;248;27568;-75
2021/09/30 06:45:21;;;;;;;4.63;3.40;;;7.40;99.90;;;;;;477727;248;28034;-76
2021/09/30 06:47:23;;;;;;;4.47;3.83;;;7.40;99.90;;;;;;477735;248;28150;-75
2021/09/30 06:49:24;;;;;;;4.90;4.00;;;7.40;99.90;;;;;;477696;248;27830;-76
2021/09/30 06:51:25;;;;;;;4.20;3.33;;;7.50;99.90;;;;;;477678;248;28033;-75
2021/09/30 06:53:26;;;;;;;4.20;3.80;;;7.50;99.90;;;;;;477661;248;27807;-75
2021/09/30 06:55:28;;;;;;;4.43;3.70;;;7.50;99.90;;;;;;477700;249;28046;-75
2021/09/30 06:57:29;;;;;;;4.43;3.93;;;7.50;99.90;;;;;;477712;248;28386;-75
2021/09/30 06:59:36;;;;;;;4.03;3.70;;;7.50;99.90;;;;;;477682;248;28435;-75
2021/09/30 07:01:38;;;;;;;4.67;4.00;;;7.50;99.90;;;;;;477680;248;27941;-74
2021/09/30 07:03:39;;;;;;;3.50;3.20;;;7.50;99.90;;;;;;477708;246;28797;-75
2021/09/30 07:05:40;;;;;;;4.00;3.70;;;7.40;99.90;;;;;;477724;248;28094;-75
2021/09/30 07:07:41;;;;;;;4.07;3.73;;;7.40;99.90;;;;;;477713;248;28825;-75
2021/09/30 07:09:43;;;;;;;4.30;4.00;;;7.40;99.90;;;;;;477715;248;27821;-75
2021/09/30 07:11:44;;;;;;;4.93;3.37;;;7.40;99.90;;;;;;477702;248;27791;-75
2021/09/30 07:13:45;;;;;;;6.10;3.57;;;7.40;99.90;;;;;;477741;248;27964;-75
2021/09/30 07:15:46;;;;;;;4.17;3.77;;;7.40;99.90;;;;;;477723;248;27904;-75
2021/09/30 07:17:48;;;;;;;6.33;3.73;;;7.50;99.90;;;;;;477730;248;28920;-75
2021/09/30 07:19:49;;;;;;;3.73;3.37;;;7.50;99.90;;;;;;477721;249;28559;-75
2021/09/30 07:21:50;;;;;;;3.70;3.40;;;7.60;99.90;;;;;;477758;248;28121;-75
2021/09/30 07:23:51;;;;;;;3.50;3.20;;;7.60;99.90;;;;;;477743;247;29933;-75
2021/09/30 07:25:53;;;;;;;3.07;2.80;;;7.60;99.90;;;;;;477729;249;28438;-75
2021/09/30 07:27:54;;;;;;;3.10;2.63;;;7.70;99.90;;;;;;477805;248;28774;-75
2021/09/30 07:29:55;;;;;;;3.33;3.03;;;7.80;99.90;;;;;;477982;248;27907;-76
2021/09/30 07:31:56;;;;;;;3.50;2.80;;;7.90;99.90;;;;;;477923;248;27960;-76
2021/09/30 07:33:58;;;;;;;4.00;2.73;;;8.00;99.90;;;;;;478011;248;27589;-75
2021/09/30 07:35:59;;;;;;;3.03;2.83;;;8.10;99.90;;;;;;477969;248;28012;-75
2021/09/30 07:38:00;;;;;;;5.47;3.30;;;8.20;99.90;;;;;;477954;248;28013;-76
2021/09/30 07:40:01;;;;;;;2.33;2.23;;;8.30;99.90;;;;;;477921;248;28039;-75
2021/09/30 07:42:03;;;;;;;2.80;2.50;;;8.40;99.90;;;;;;477853;248;27938;-75
2021/09/30 07:44:04;;;;;;;3.73;2.43;;;8.60;99.90;;;;;;477823;248;27889;-75
2021/09/30 07:46:05;;;;;;;2.87;2.50;;;8.70;99.90;;;;;;477832;248;27669;-75
2021/09/30 07:48:06;;;;;;;2.57;2.37;;;8.70;99.90;;;;;;477813;248;27867;-76
2021/09/30 07:50:08;;;;;;;4.83;2.90;;;8.80;99.90;;;;;;477786;248;27989;-75
2021/09/30 07:52:09;;;;;;;4.03;2.20;;;8.90;99.90;;;;;;477794;249;28001;-76
2021/09/30 07:54:10;;;;;;;2.20;2.00;;;9.00;99.90;;;;;;477819;249;27538;-75
2021/09/30 07:56:11;;;;;;;2.73;2.37;;;9.10;99.90;;;;;;477826;248;28406;-75
2021/09/30 07:58:13;;;;;;;2.50;2.23;;;9.10;99.90;;;;;;477794;248;28774;-75
2021/09/30 08:00:14;;;;;;;4.73;2.50;;;9.20;99.90;;;;;;477999;248;27997;-75
2021/09/30 08:02:15;;;;;;;2.27;2.07;;;9.20;99.90;;;;;;478057;249;28018;-75
2021/09/30 08:04:16;;;;;;;2.43;2.23;;;9.20;99.90;;;;;;477896;248;27877;-75
2021/09/30 08:06:18;;;;;;;2.47;2.20;;;9.20;99.90;;;;;;477876;248;27789;-75
2021/09/30 08:08:19;;;;;;;2.83;1.93;;;9.20;99.90;;;;;;477819;248;28004;-74
2021/09/30 08:10:20;;;;;;;2.27;1.80;;;9.30;99.90;;;;;;477829;248;27942;-75
2021/09/30 08:12:21;;;;;;;2.13;1.93;;;9.40;99.90;;;;;;477790;248;27929;-75
2021/09/30 08:14:23;;;;;;;2.30;1.90;;;9.40;99.90;;;;;;477762;248;27918;-75
2021/09/30 08:16:25;;;;;;;3.13;2.17;;;9.50;99.90;;;;;;477727;248;27833;-75
2021/09/30 08:18:25;;;;;;;2.30;2.07;;;9.50;99.90;;;;;;477784;248;27971;-75
2021/09/30 08:20:26;;;;;;;2.37;2.20;;;9.50;99.90;;;;;;477789;248;27841;-76
2021/09/30 08:22:28;;;;;;;3.77;2.10;;;9.60;99.90;;;;;;477799;248;27879;-75
2021/09/30 08:24:29;;;;;;;2.30;2.10;;;9.70;99.90;;;;;;477753;248;27730;-75
2021/09/30 08:26:30;;;;;;;2.87;1.53;;;9.70;99.90;;;;;;477745;248;28074;-76
2021/09/30 08:28:33;;;;;;;2.30;1.97;;;9.80;99.90;;;;;;477759;248;27890;-75
2021/09/30 08:30:33;;;;;;;2.33;2.13;;;9.70;99.90;;;;;;477774;248;28303;-76
2021/09/30 08:32:35;;;;;;;1.83;1.73;;;9.70;99.90;;;;;;477830;248;27948;-75
2021/09/30 08:34:35;;;;;;;15.37;2.43;;;9.70;99.90;;;;;;477726;249;27890;-75
2021/09/30 08:36:36;;;;;;;2.00;1.80;;;9.70;99.90;;;;;;477750;248;28288;-75
2021/09/30 08:38:38;;;;;;;1.60;1.50;;;9.70;99.90;;;;;;477780;248;28421;-75
2021/09/30 08:40:40;;;;;;;1.97;1.70;;;9.80;99.90;;;;;;477751;248;27647;-75
2021/09/30 08:42:41;;;;;;;1.83;1.70;;;9.80;99.90;;;;;;477717;248;28405;-75
2021/09/30 08:44:41;;;;;;;2.40;1.80;;;9.90;99.90;;;;;;477691;249;27883;-76
2021/09/30 08:46:43;;;;;;;1.87;1.67;;;9.90;99.90;;;;;;477727;249;27840;-75
2021/09/30 08:48:44;;;;;;;1.67;1.57;;;9.90;99.90;;;;;;477746;248;27927;-75
2021/09/30 08:50:45;;;;;;;1.83;1.60;;;9.90;99.90;;;;;;477757;248;28014;-76
2021/09/30 08:52:46;;;;;;;3.10;1.80;;;9.90;99.90;;;;;;477734;248;28011;-75
2021/09/30 08:54:48;;;;;;;1.60;1.50;;;9.80;99.90;;;;;;477734;248;27762;-75
2021/09/30 08:56:49;;;;;;;5.50;2.00;;;9.80;99.90;;;;;;477705;248;28079;-75
2021/09/30 08:58:51;;;;;;;2.63;1.80;;;9.80;99.90;;;;;;477751;248;27541;-75
2021/09/30 09:00:52;;;;;;;4.20;1.97;;;9.80;99.90;;;;;;477693;248;27624;-75
2021/09/30 09:02:53;;;;;;;2.30;1.80;;;9.80;99.90;;;;;;477716;248;27899;-75
2021/09/30 09:04:54;;;;;;;4.80;2.37;;;9.80;99.90;;;;;;477709;248;28031;-75
2021/09/30 09:06:55;;;;;;;1.90;1.70;;;9.80;99.90;;;;;;477737;248;27675;-75
2021/09/30 09:08:56;;;;;;;2.00;1.80;;;9.70;99.90;;;;;;477742;248;27935;-75
2021/09/30 09:10:58;;;;;;;2.50;1.80;;;9.70;99.90;;;;;;477707;248;28302;-76
2021/09/30 09:12:59;;;;;;;2.07;1.70;;;9.70;99.90;;;;;;477721;248;28490;-76
2021/09/30 09:15:00;;;;;;;1.93;1.60;;;9.70;99.90;;;;;;477727;248;28103;-75
2021/09/30 09:17:01;;;;;;;3.10;1.70;;;9.70;99.90;;;;;;477739;248;28194;-75
2021/09/30 09:19:03;;;;;;;2.40;1.70;;;9.70;99.90;;;;;;477748;248;28695;-75
2021/09/30 09:21:04;;;;;;;1.97;1.77;;;9.80;99.90;;;;;;477722;248;28409;-75
2021/09/30 09:23:05;;;;;;;2.30;1.87;;;9.80;99.90;;;;;;477715;248;27665;-75
2021/09/30 09:25:06;;;;;;;2.70;1.80;;;9.90;99.90;;;;;;477749;248;27869;-75
2021/09/30 09:27:08;;;;;;;3.80;1.57;;;9.90;99.90;;;;;;477724;248;27955;-75
2021/09/30 09:29:14;;;;;;;1.40;1.30;;;9.90;99.90;;;;;;477739;248;27938;-75
2021/09/30 09:31:15;;;;;;;3.20;1.43;;;9.90;99.90;;;;;;477644;249;27909;-75
2021/09/30 09:33:14;;;;;;;4.50;1.73;;;9.90;99.90;;;;;;477692;248;28017;-75
2021/09/30 09:35:16;;;;;;;1.40;1.30;;;9.90;99.90;;;;;;477699;247;27895;-75
2021/09/30 09:37:17;;;;;;;3.13;1.50;;;9.90;99.90;;;;;;477714;248;27406;-75
2021/09/30 09:39:18;;;;;;;1.50;1.40;;;10.00;99.90;;;;;;477714;249;28128;-75
2021/09/30 09:41:21;;;;;;;1.60;1.50;;;10.10;99.90;;;;;;477711;248;28409;-75
2021/09/30 09:43:20;;;;;;;2.20;1.40;;;10.20;99.90;;;;;;477698;248;28432;-75
2021/09/30 09:45:21;;;;;;;1.77;1.67;;;10.20;99.90;;;;;;477703;248;28535;-75
2021/09/30 09:47:23;;;;;;;1.80;1.53;;;10.20;99.90;;;;;;477683;248;27830;-76
2021/09/30 09:49:24;;;;;;;1.97;1.60;;;10.10;99.90;;;;;;477733;248;27683;-75
2021/09/30 09:51:25;;;;;;;2.30;1.50;;;10.20;99.90;;;;;;477693;248;27481;-75
2021/09/30 09:53:26;;;;;;;3.03;1.60;;;10.20;99.90;;;;;;477656;248;28004;-75
2021/09/30 09:55:28;;;;;;;5.77;1.70;;;10.20;99.90;;;;;;477643;248;27968;-75
2021/09/30 09:57:29;;;;;;;7.00;1.90;;;10.30;99.90;;;;;;477656;248;28044;-75
2021/09/30 09:59:30;;;;;;;1.43;1.30;;;10.50;99.90;;;;;;477736;248;27900;-75
2021/09/30 10:01:31;;;;;;;2.10;1.90;;;10.60;99.90;;;;;;477745;248;27930;-75
2021/09/30 10:03:33;;;;;;;2.43;1.40;;;10.70;99.90;;;;;;477752;248;28413;-75
2021/09/30 10:05:34;;;;;;;1.60;1.50;;;10.80;99.90;;;;;;477716;248;28398;-75
2021/09/30 10:07:35;;;;;;;2.20;1.40;;;10.80;99.90;;;;;;477737;248;28596;-75
2021/09/30 10:09:36;;;;;;;6.17;2.30;;;10.90;99.90;;;;;;477757;248;28415;-75
2021/09/30 10:11:38;;;;;;;2.37;1.50;;;11.00;99.90;;;;;;477755;248;27955;-75
2021/09/30 10:13:39;;;;;;;3.30;1.90;;;11.00;99.90;;;;;;477696;249;27927;-75
2021/09/30 10:15:40;;;;;;;4.20;1.80;;;11.20;99.90;;;;;;477672;248;28012;-75
2021/09/30 10:17:41;;;;;;;3.77;1.60;;;11.50;99.90;;;;;;477738;248;28050;-77
2021/09/30 10:19:43;;;;;;;3.57;1.60;;;11.70;99.90;;;;;;477964;248;28138;-76
2021/09/30 10:21:44;;;;;;;2.37;1.73;;;11.70;99.90;;;;;;477727;248;28148;-77
2021/09/30 10:23:45;;;;;;;1.83;1.60;;;11.70;99.90;;;;;;477672;248;28150;-76
2021/09/30 10:25:46;;;;;;;4.70;1.60;;;11.60;99.90;;;;;;477685;248;28291;-77
2021/09/30 10:27:48;;;;;;;2.20;1.67;;;11.70;99.90;;;;;;477701;248;28117;-77
2021/09/30 10:29:49;;;;;;;1.60;1.50;;;11.90;99.90;;;;;;477709;248;28816;-77
2021/09/30 10:31:50;;;;;;;2.37;1.67;;;11.80;99.90;;;;;;477714;248;28790;-76
2021/09/30 10:33:53;;;;;;;1.30;1.20;;;11.80;99.90;;;;;;477667;248;28720;-76
2021/09/30 10:35:53;;;;;;;4.83;1.47;;;11.80;99.90;;;;;;477647;249;28246;-77
2021/09/30 10:37:54;;;;;;;1.80;1.20;;;11.90;99.90;;;;;;477680;248;28005;-76
2021/09/30 10:39:55;;;;;;;1.30;1.20;;;11.90;99.90;;;;;;477687;248;28263;-77
2021/09/30 10:41:57;;;;;;;3.23;1.80;;;11.90;99.90;;;;;;477672;248;28124;-76
2021/09/30 10:43:58;;;;;;;2.53;1.30;;;11.90;99.90;;;;;;477666;248;28153;-77
2021/09/30 10:45:59;;;;;;;3.90;1.23;;;11.70;99.90;;;;;;477668;248;28162;-76
2021/09/30 10:48:00;;;;;;;1.87;1.40;;;11.50;99.90;;;;;;477719;248;28248;-75
2021/09/30 10:50:02;;;;;;;2.43;1.60;;;11.40;99.90;;;;;;477684;248;28456;-76
2021/09/30 10:52:03;;;;;;;2.97;1.53;;;11.50;99.90;;;;;;477665;248;28163;-76
2021/09/30 10:54:04;;;;;;;3.87;1.90;;;11.70;99.90;;;;;;477660;248;29507;-76
2021/09/30 10:56:06;;;;;;;1.43;1.33;;;11.90;99.90;;;;;;477702;248;28562;-76
2021/09/30 10:58:07;;;;;;;1.70;1.50;;;12.00;99.90;;;;;;477710;249;28870;-77
2021/09/30 11:00:08;;;;;;;2.87;1.37;;;12.30;99.90;;;;;;477657;248;28112;-77
2021/09/30 11:02:09;;;;;;;1.93;1.20;;;12.50;99.90;;;;;;477714;248;28354;-77
2021/09/30 11:04:10;;;;;;;4.83;2.43;;;12.70;99.90;;;;;;477677;248;28481;-77
2021/09/30 11:06:12;;;;;;;2.70;1.30;;;12.70;99.90;;;;;;477721;248;28749;-77
2021/09/30 11:08:13;;;;;;;1.33;1.23;;;12.90;99.90;;;;;;477683;248;28296;-77
2021/09/30 11:10:14;;;;;;;1.93;1.40;;;13.00;99.90;;;;;;477674;248;28081;-76
2021/09/30 11:12:15;;;;;;;1.93;1.20;;;12.90;99.90;;;;;;477651;248;28254;-76
2021/09/30 11:14:17;;;;;;;4.07;1.30;;;12.90;99.90;;;;;;477724;248;28159;-77
2021/09/30 11:16:18;;;;;;;2.87;1.50;;;12.90;99.90;;;;;;477728;248;28119;-77
2021/09/30 11:18:19;;;;;;;3.93;1.50;;;12.70;99.90;;;;;;477698;248;29406;-76
2021/09/30 11:20:20;;;;;;;2.37;1.53;;;12.70;99.90;;;;;;477634;248;28768;-77
2021/09/30 11:22:22;;;;;;;2.80;1.60;;;12.80;99.90;;;;;;477682;248;28820;-76
2021/09/30 11:24:23;;;;;;;4.00;1.40;;;12.90;99.90;;;;;;477696;248;28253;-76
2021/09/30 11:26:24;;;;;;;2.10;1.53;;;13.00;99.90;;;;;;477698;247;28237;-76
2021/09/30 11:28:25;;;;;;;1.67;1.57;;;12.90;99.90;;;;;;477679;248;28517;-76
2021/09/30 11:30:27;;;;;;;1.20;1.10;;;12.80;99.90;;;;;;477704;248;28215;-76
2021/09/30 11:32:28;;;;;;;4.80;1.30;;;12.80;99.90;;;;;;477679;248;28233;-77
2021/09/30 11:34:29;;;;;;;1.20;1.20;;;12.80;99.90;;;;;;477662;248;28815;-76
2021/09/30 11:36:30;;;;;;;1.83;1.30;;;12.90;99.90;;;;;;477643;249;28345;-77
2021/09/30 11:38:32;;;;;;;1.47;1.20;;;12.90;99.90;;;;;;477642;248;28153;-76
2021/09/30 11:40:33;;;;;;;1.33;1.20;;;13.10;99.90;;;;;;477683;249;29629;-76
2021/09/30 11:42:34;;;;;;;1.40;1.30;;;13.00;99.90;;;;;;477699;248;28727;-77
2021/09/30 11:44:35;;;;;;;1.10;1.10;;;12.90;99.90;;;;;;477699;248;29426;-76
2021/09/30 11:46:38;;;;;;;2.40;1.40;;;12.80;99.90;;;;;;477729;248;28331;-76
2021/09/30 11:48:38;;;;;;;2.10;1.40;;;12.70;99.90;;;;;;477659;249;28309;-76
2021/09/30 11:50:39;;;;;;;1.80;1.30;;;12.80;99.90;;;;;;477735;248;28356;-76
2021/09/30 11:52:40;;;;;;;1.80;1.20;;;12.90;99.90;;;;;;477707;248;28445;-76
2021/09/30 11:54:42;;;;;;;2.30;1.30;;;13.00;99.90;;;;;;477704;248;28462;-76
2021/09/30 11:56:43;;;;;;;2.53;1.30;;;13.20;99.90;;;;;;477674;248;28231;-77
2021/09/30 11:58:44;;;;;;;1.90;1.40;;;13.30;99.90;;;;;;477689;248;28880;-76
2021/09/30 12:00:45;;;;;;;1.20;1.10;;;13.40;99.90;;;;;;477776;248;28273;-76
2021/09/30 12:02:47;;;;;;;2.03;1.37;;;13.30;99.90;;;;;;477740;248;29002;-76
2021/09/30 12:04:49;;;;;;;2.83;1.50;;;13.30;99.90;;;;;;477759;248;28657;-76
2021/09/30 12:06:49;;;;;;;5.30;2.00;;;13.40;99.90;;;;;;477719;249;28558;-76
2021/09/30 12:08:52;;;;;;;2.13;1.20;;;;;;;;;;477741;248;28717;-76
2021/09/30 12:10:53;;;;;;;1.93;1.30;;;13.60;99.90;;;;;;477797;248;26475;-76
2021/09/30 12:12:54;;;;;;;2.67;1.47;;;13.70;99.90;;;;;;477732;248;28245;-75
2021/09/30 12:14:59;;;;;;;2.03;1.30;;;13.80;99.90;;;;;;477746;248;28332;-76
2021/09/30 12:16:57;;;;;;;1.20;1.10;;;14.00;99.90;;;;;;477608;248;28843;-76
2021/09/30 12:18:58;;;;;;;1.83;1.40;;;13.90;99.90;;;;;;477764;248;28712;-76
2021/09/30 12:20:59;;;;;;;1.20;1.10;;;13.80;99.90;;;;;;477738;249;28647;-77
2021/09/30 12:23:00;;;;;;;1.97;1.20;;;13.90;99.90;;;;;;477710;248;28736;-76
2021/09/30 12:25:02;;;;;;;2.07;1.10;;;14.00;99.90;;;;;;477709;248;28213;-76
2021/09/30 12:27:03;;;;;;;1.40;1.30;;;13.80;99.90;;;;;;477731;248;28154;-76
2021/09/30 12:29:04;;;;;;;4.40;1.23;;;13.90;99.90;;;;;;477734;248;28154;-76
2021/09/30 12:31:05;;;;;;;1.33;1.20;;;13.80;99.90;;;;;;477731;248;28222;-77
2021/09/30 12:33:07;;;;;;;1.43;1.10;;;13.80;99.90;;;;;;477717;248;28499;-76
2021/09/30 12:35:08;;;;;;;1.30;1.20;;;13.80;99.90;;;;;;477698;248;28234;-76
2021/09/30 12:37:09;;;;;;;1.00;1.00;;;13.80;99.90;;;;;;477733;248;28123;-76
2021/09/30 12:39:10;;;;;;;3.43;1.40;;;13.80;99.90;;;;;;477746;248;28177;-76
2021/09/30 12:41:12;;;;;;;1.87;1.30;;;13.80;99.90;;;;;;477715;248;28921;-77
2021/09/30 12:43:13;;;;;;;1.10;1.00;;;14.00;99.90;;;;;;477712;248;29053;-77
2021/09/30 12:45:14;;;;;;;1.07;1.07;;;14.00;99.90;;;;;;477710;248;29335;-76
2021/09/30 12:47:15;;;;;;;1.83;1.30;;;14.10;99.90;;;;;;477683;248;28427;-77
2021/09/30 12:49:17;;;;;;;1.07;1.00;;;14.00;99.90;;;;;;477717;248;28442;-76
2021/09/30 12:51:18;;;;;;;1.63;1.07;;;13.80;99.90;;;;;;477698;248;28115;-76
2021/09/30 12:53:19;;;;;;;1.90;1.30;;;13.60;99.90;;;;;;477730;248;28141;-76
2021/09/30 12:55:20;;;;;;;1.57;1.10;;;13.40;99.90;;;;;;477721;248;28631;-76
2021/09/30 12:57:22;;;;;;;1.43;1.10;;;13.20;99.90;;;;;;477693;248;28224;-76
2021/09/30 12:59:25;;;;;;;2.93;1.30;;;13.00;99.90;;;;;;477757;248;28256;-76
2021/09/30 13:01:27;;;;;;;1.33;1.00;;;12.90;99.90;;;;;;477675;248;28165;-76
2021/09/30 13:03:25;;;;;;;1.67;1.10;;;12.70;99.90;;;;;;477533;248;28147;-76
2021/09/30 13:05:27;;;;;;;1.23;1.13;;;12.60;99.90;;;;;;477709;248;28814;-76